Salisbury, North Carolina
Current Conditions -  °F | °C
As of 10:15 PM on Saturday 20 Dec 2014 (Local Time) from KRUQ Reporting Station
Overcast Overcast  
Wind Chill: 40°   Ceiling: 2500
Heat Index: 40°   Visibility: 10mi
Dew Point: 35°   Wind: 0mph
Humidity: 84%   Direction: NA
Pressure: 30.25"   Gusts: NA
Location:  35.67°N, 80.47°W
Report Text: KRUQ 210315Z AUTO 00000KT 10SM OVC025 04/02 A3025 RMK AO2 T00420017
Loading
Personal Weather Stations






























Interactive Weather Map New forecast layout! Learn more

10-Day Weather Forecast

Advertisements
Track Severe Weather on mobile